• Join FlightAware (Why Join?)
  • Login
  • US Flag 
12:11PM EDT


 

Airport Tracker/Info


-or-


 

Live Flight TrackerFlight Track Log ✈ CPZ5750 ✈ 02-Jul-2013 ✈ KMSP - KALB

Flight Track Log - Related Links

Times and Time Zones

All times are in EDT time to prevent confusion due to time zone crossing. See the CPZ5750 flight status page for this flight to view local times or setup timezone preferences in your user account.

Time Position Orientation Groundspeed Altitude Reporting Facility
EDT Latitude Longitude Course Direction KTS MPH feet Rate Location/Type
04:32PM 44.9333 -93.2500 70° East 190 219 2,800  Level Minneapolis TRACON
04:33PM 44.9833 -93.2333 13° North 244 281 5,000 2,520 Climbing Minneapolis TRACON
04:34PM 45.0366 -92.6303 68° East  Level FlightAware Approximate
04:34PM 45.0300 -93.1083 62° Northeast 271 312 8,800  Level Minneapolis Center
04:35PM 45.0787 -92.4831 68° East  Level FlightAware Approximate
04:35PM 45.0586 -93.0036 69° East 285 328 11,600  Level Minneapolis Center
04:36PM 45.1127 -92.3326 70° East  Level FlightAware Approximate
04:36PM 45.0992 -92.8975 62° Northeast 305 351 13,200  Level Minneapolis Center
04:37PM 45.1504 -92.1820 70° East  Level FlightAware Approximate
04:37PM 45.1408 -92.7725 65° Northeast 347 399 15,300  Level Minneapolis Center
04:38PM 45.1922 -92.6189 65° Northeast 361 415 17,700 2,160 Climbing Minneapolis Center
04:39PM 45.2367 -92.4869 64° Northeast 370 426 19,800 1,800 Climbing Minneapolis Center
04:40PM 45.2811 -92.3519 65° Northeast 375 432 21,500 1,560 Climbing Minneapolis Center
04:41PM 45.3139 -92.2028 73° East 398 458 23,100 1,500 Climbing Minneapolis Center
04:42PM 45.3356 -92.0478 79° East 402 463 24,600 1,320 Climbing Minneapolis Center
04:43PM 45.3572 -91.8883 79° East 406 467 25,900 1,320 Climbing Minneapolis Center
04:44PM 45.3842 -91.6939 79° East 413 475 27,400 1,140 Climbing Minneapolis Center
04:45PM 45.4064 -91.5267 79° East 421 484 28,300 720 Climbing Minneapolis Center
04:47PM 45.4286 -91.3578 79° East 431 496 29,000 720 Climbing Minneapolis Center
04:48PM 45.4508 -91.1817 80° East 446 513 29,800 960 Climbing Minneapolis Center
04:49PM 45.4694 -91.0061 81° East 449 517 31,100 1,140 Climbing Minneapolis Center
04:50PM 45.4556 -90.8347 97° East 438 504 32,200 1,020 Climbing Minneapolis Center
04:51PM 45.4378 -90.6289 97° East 437 503 33,300 960 Climbing Minneapolis Center
04:52PM 45.4217 -90.4581 98° East 437 503 34,200 780 Climbing Minneapolis Center
04:53PM 45.4044 -90.2914 98° East 430 495 35,000 360 Climbing Minneapolis Center
04:54PM 45.3897 -90.1236 97° East 430 495 35,000  Level Minneapolis Center
04:55PM 45.3728 -89.9578 98° East 427 491 35,000  Level Minneapolis Center
04:56PM 45.3522 -89.7589 98° East 426 490 35,000  Level Minneapolis Center
04:57PM 45.3358 -89.5933 98° East 425 489 35,000  Level Minneapolis Center
04:58PM 45.3183 -89.4261 98° East 429 494 35,000  Level Minneapolis Center
04:59PM 45.3008 -89.2608 99° East 427 491 35,000  Level Minneapolis Center
05:00PM 45.2839 -89.0967 98° East 425 489 35,000  Level Minneapolis Center
05:01PM 45.2608 -88.8981 99° East 427 491 35,000  Level Minneapolis Center
05:02PM 45.2433 -88.7308 98° East 431 496 35,000  Level Minneapolis Center
05:03PM 45.2275 -88.5783 98° East 432 497 35,000  Level Minneapolis Center
05:04PM 45.2083 -88.4122 99° East 428 493 35,000  Level Minneapolis Center
05:05PM 45.1853 -88.2128 99° East 429 494 35,000  Level Minneapolis Center
05:06PM 45.1664 -88.0472 99° East 428 493 35,000  Level Minneapolis Center
05:07PM 45.1461 -87.8831 100° East 426 490 35,000  Level Minneapolis Center
05:08PM 45.1261 -87.7161 100° East 429 494 35,000  Level Minneapolis Center
05:09PM 45.1067 -87.5483 99° East 432 497 35,000  Level Minneapolis Center
05:10PM 45.0808 -87.3469 100° East 435 501 35,000  Level Minneapolis Center
05:11PM 45.0600 -87.1761 100° East 441 507 35,000  Level Minneapolis Center
05:12PM 45.0375 -87.0042 100° East 443 510 35,000  Level Minneapolis Center
05:13PM 45.0158 -86.8306 100° East 448 516 35,000  Level Minneapolis Center
05:14PM 44.9931 -86.6481 100° East 453 521 35,000  Level Minneapolis Center
05:15PM 44.9697 -86.4769 101° East 450 518 35,000  Level Minneapolis Center
05:17PM 44.9469 -86.3075 101° East 443 510 35,000  Level Minneapolis Center
05:18PM 44.9239 -86.1369 101° East 442 509 35,000  Level Minneapolis Center
05:19PM 44.8969 -85.9319 100° East 443 510 35,000  Level Minneapolis Center
05:20PM 44.8731 -85.7622 101° East 443 510 35,000  Level Minneapolis Center
05:21PM 44.8494 -85.5853 101° East 443 510 35,000  Level Minneapolis Center
05:22PM 44.8250 -85.4139 101° East 446 513 35,000  Level Minneapolis Center
05:23PM 44.8003 -85.2439 102° East 445 512 35,000  Level Minneapolis Center
05:24PM 44.7758 -85.0731 101° East 445 512 35,000  Level Minneapolis Center
05:25PM 44.7514 -84.9025 101° East 445 512 35,000  Level Minneapolis Center
05:26PM 44.7214 -84.6953 101° East 451 519 35,000  Level Minneapolis Center
05:27PM 44.6961 -84.5239 102° East 450 518 35,000  Level Minneapolis Center
05:28PM 44.6711 -84.3525 102° East 449 517 35,000  Level Minneapolis Center
05:29PM 44.6436 -84.1800 103° East 452 520 35,000  Level Minneapolis Center
05:30PM 44.6178 -84.0078 102° East 453 521 35,000  Level Minneapolis Center
05:31PM 44.5900 -83.8364 103° East 452 520 35,000  Level Minneapolis Center
05:32PM 44.5589 -83.6294 102° East 453 521 35,000  Level Minneapolis Center
05:33PM 44.5311 -83.4567 103° East 456 525 35,000  Level Minneapolis Center
05:34PM 44.5022 -83.2831 103° East 458 527 35,000  Level Minneapolis Center
05:35PM 44.4753 -83.1081 102° East 459 528 35,000  Level Minneapolis Center
05:36PM 44.4458 -82.9342 103° East 459 528 35,000  Level Minneapolis Center
05:37PM 44.4114 -82.7250 103° East 461 531 35,000  Level Minneapolis Center
05:38PM 44.3842 -82.5489 102° East 462 532 35,000  Level Minneapolis Center
05:39PM 44.3519 -82.3753 104° East 464 534 35,000  Level Minneapolis Center
05:40PM 44.2833 -82.1500 113° Southeast 460 529 35,000  Level Toronto Center
05:41PM 44.2500 -81.9833 106° East 460 529 35,000  Level Toronto Center
05:42PM 44.2167 -81.8167 106° East 460 529 35,000  Level Toronto Center
05:43PM 44.1667 -81.6500 113° Southeast 460 529 35,000  Level Toronto Center
05:44PM 44.1333 -81.4833 106° East 460 529 35,000  Level Toronto Center
05:45PM 44.0833 -81.3000 111° Southeast 460 529 35,000  Level Toronto Center
05:46PM 44.0333 -81.1333 113° Southeast 460 529 35,000  Level Toronto Center
05:47PM 44.0000 -80.9833 107° East 460 529 35,000  Level Toronto Center
05:48PM 43.9667 -80.8167 105° East 460 529 35,000  Level Toronto Center
05:49PM 43.9167 -80.6333 111° Southeast 460 529 35,000  Level Toronto Center
05:50PM 43.8833 -80.4667 105° East 460 529 35,000  Level Toronto Center
05:51PM 43.8333 -80.3000 113° Southeast 460 529 35,000  Level Toronto Center
05:52PM 43.7833 -80.1333 113° Southeast 460 529 35,000  Level Toronto Center
05:53PM 43.7500 -79.9833 107° East 460 529 35,000  Level Toronto Center
05:54PM 43.7000 -79.8000 111° Southeast 460 529 35,000  Level Toronto Center
05:55PM 43.6500 -79.6333 112° Southeast 480 552 35,000  Level Toronto Center
05:56PM 43.6333 -79.4500 97° East 500 575 35,000  Level Toronto Center
05:57PM 43.6000 -79.2667 104° East 480 552 35,000  Level Toronto Center
05:58PM 43.5833 -79.0833 97° East 490 564 35,000  Level Toronto Center
05:59PM 43.5500 -78.9000 104° East 480 552 35,000  Level Toronto Center
06:00PM 43.5333 -78.7167 97° East 480 552 35,000  Level Toronto Center
06:01PM 43.5167 -78.5500 98° East 480 552 35,000  Level Toronto Center
06:02PM 43.4667 -78.3500 109° East 480 552 35,000  Level Toronto Center
06:03PM 43.4500 -78.1833 98° East 480 552 35,000  Level Toronto Center
06:05PM 43.4336 -77.9875 97° East 485 558 35,000 -360 Level Cleveland Center
06:06PM 43.4064 -77.8056 102° East 485 558 34,300 -720 Descending Cleveland Center
06:07PM 43.3811 -77.6297 101° East 485 558 33,600 -840 Descending Cleveland Center
06:08PM 43.3536 -77.4483 102° East 485 558 32,700 -1,140 Descending Cleveland Center
06:09PM 43.3000 -77.0833 101° East 470 541 30,500 -1,200 Descending Toronto Center
06:10PM 43.2667 -76.9333 107° East 460 529 29,300 -780 Descending Toronto Center
06:11PM 43.2500 -76.7500 97° East 460 529 29,000 -180 Descending Toronto Center
06:12PM 43.2167 -76.5833 105° East 460 529 29,000  Level Toronto Center
06:13PM 43.1833 -76.4167 105° East 450 518 29,000  Level Toronto Center
06:14PM 43.1858 -76.3503 87° East 456 525 29,000 -660 Level Boston Center
06:15PM 43.1600 -76.1836 102° East 456 525 28,000 -1,260 Descending Boston Center
06:16PM 43.1339 -76.0253 103° East 446 513 26,500 -1,500 Descending Boston Center
06:17PM 43.1094 -75.8703 102° East 434 499 25,000 -1,560 Descending Boston Center
06:18PM 43.0831 -75.7094 103° East 429 494 23,400 -1,560 Descending Boston Center
06:19PM 43.0558 -75.5575 104° East 424 488 21,900 -1,500 Descending Boston Center
06:20PM 43.0289 -75.4028 103° East 417 480 20,400 -1,500 Descending Boston Center
06:21PM 43.0053 -75.2594 103° East 407 468 19,000 -1,260 Descending Boston Center
06:22PM 42.9872 -75.1481 102° East 395 455 17,900 -1,440 Descending Boston Center
06:23PM 42.9550 -75.0103 108° East 385 443 16,200 -1,920 Descending Boston Center
06:24PM 42.8892 -74.8717 123° Southeast 365 420 14,100 -1,740 Descending Boston Center
06:25PM 42.8714 -74.7319 100° East 366 421 12,800 -1,200 Descending Boston Center
06:26PM 42.8528 -74.6094 102° East 366 421 11,800 -1,140 Descending Boston Center
06:27PM 42.8367 -74.4617 98° East 366 421 10,600 -1,020 Descending Boston Center
06:28PM 42.8344 -74.3483 91° East 345 397 9,800 -1,320 Descending Boston Center
06:29PM 42.8325 -74.2181 91° East 311 358 8,000 -2,100 Descending Boston Center
06:30PM 42.8303 -74.0906 91° East 296 341 5,300 -2,220 Descending Boston Center
06:31PM 42.8294 -74.0086 91° East 294 338 3,600 -1,440 Descending Boston Center
06:32PM 42.8267 -73.8925 92° East 286 329 2,700 -900 Descending Boston Center
06:33PM 42.8400 -73.8333 73° East 159 183 1,800 -840 Descending Boston Center